createdAt,value
2018-09-30T00:00:49.890Z,3.8
2018-09-30T00:02:50.224Z,4.0
2018-09-30T00:04:49.841Z,3.5
2018-09-30T00:06:50.236Z,3.9
2018-09-30T00:08:49.574Z,4.0
2018-09-30T00:10:49.804Z,4.0
2018-09-30T00:12:50.085Z,4.0
2018-09-30T00:14:50.382Z,3.7
2018-09-30T00:16:49.919Z,3.6
2018-09-30T00:18:50.259Z,3.4
2018-09-30T00:20:49.689Z,3.4
2018-09-30T00:22:50.030Z,3.9
2018-09-30T00:24:50.412Z,3.5
2018-09-30T00:26:49.975Z,3.6
2018-09-30T00:28:49.538Z,3.3
2018-09-30T00:30:49.938Z,3.6
2018-09-30T00:32:50.255Z,3.6
2018-09-30T00:34:49.922Z,3.6
2018-09-30T00:36:50.423Z,3.8
2018-09-30T00:38:49.810Z,3.5
2018-09-30T00:40:50.093Z,3.5
2018-09-30T00:42:50.429Z,3.7
2018-09-30T00:44:49.698Z,3.8
2018-09-30T00:46:50.163Z,3.6
2018-09-30T00:48:50.397Z,3.6
2018-09-30T00:50:49.846Z,3.4
2018-09-30T00:52:50.131Z,3.4
2018-09-30T00:54:50.350Z,3.5
2018-09-30T00:56:49.813Z,3.6
2018-09-30T00:58:50.001Z,3.9
2018-09-30T01:00:50.241Z,3.9
2018-09-30T01:02:50.438Z,3.5
2018-09-30T01:04:50.106Z,3.6
2018-09-30T01:06:49.630Z,3.4
2018-09-30T01:08:49.895Z,3.1
2018-09-30T01:10:50.223Z,3.1
2018-09-30T01:12:50.416Z,3.6
2018-09-30T01:14:49.606Z,3.7
2018-09-30T01:16:50.163Z,3.7
2018-09-30T01:18:50.468Z,3.4
2018-09-30T01:20:49.709Z,3.4
2018-09-30T01:22:49.898Z,3.3
2018-09-30T01:24:50.136Z,3.2
2018-09-30T01:26:49.608Z,3.9
2018-09-30T01:28:49.790Z,3.6
2018-09-30T01:30:49.952Z,3.6
2018-09-30T01:32:50.204Z,3.6
2018-09-30T01:34:49.862Z,3.2
2018-09-30T01:36:50.286Z,3.7
2018-09-30T01:38:49.579Z,3.7
2018-09-30T01:40:49.722Z,3.5
2018-09-30T01:42:49.893Z,4.0
2018-09-30T01:44:50.081Z,3.9
2018-09-30T01:46:50.481Z,4.2
2018-09-30T01:48:49.739Z,4.2
2018-09-30T01:50:49.938Z,3.8
2018-09-30T01:52:50.175Z,3.7
2018-09-30T01:54:49.785Z,3.7
2018-09-30T01:56:50.218Z,3.7
2018-09-30T01:58:50.408Z,3.8
2018-09-30T02:00:49.653Z,4.0
2018-09-30T02:02:49.970Z,3.8
2018-09-30T02:04:49.550Z,3.9
2018-09-30T02:06:50.097Z,3.9
2018-09-30T02:08:50.306Z,4.0
2018-09-30T02:10:49.562Z,4.4
2018-09-30T02:12:49.831Z,4.0
2018-09-30T02:14:49.965Z,4.0
2018-09-30T02:16:50.299Z,4.0
2018-09-30T02:18:49.539Z,3.6
2018-09-30T02:20:49.715Z,3.8
2018-09-30T02:22:49.785Z,4.5
2018-09-30T02:24:49.957Z,4.7
2018-09-30T02:26:50.345Z,3.8
2018-09-30T02:28:49.651Z,3.8
2018-09-30T02:30:49.876Z,4.2
2018-09-30T02:32:50.164Z,3.8
2018-09-30T02:34:49.726Z,3.8
2018-09-30T02:36:50.299Z,4.2
2018-09-30T02:38:50.503Z,4.0
2018-09-30T02:40:49.675Z,3.9
2018-09-30T02:42:49.953Z,4.1
2018-09-30T02:44:50.189Z,4.1
2018-09-30T02:46:49.675Z,4.5
2018-09-30T02:48:50.034Z,4.1
2018-09-30T02:50:50.386Z,3.9
2018-09-30T02:52:49.774Z,3.9
2018-09-30T02:54:50.156Z,3.8
2018-09-30T02:56:49.709Z,3.8
2018-09-30T02:58:50.140Z,4.1
2018-09-30T03:00:49.590Z,3.6
2018-09-30T03:02:49.931Z,3.7
2018-09-30T03:04:50.531Z,3.9
2018-09-30T03:06:50.100Z,3.9
2018-09-30T03:08:50.404Z,3.9
2018-09-30T03:10:50.196Z,3.9
2018-09-30T03:12:49.539Z,3.9
2018-09-30T03:14:49.916Z,3.8
2018-09-30T03:16:49.568Z,3.8
2018-09-30T03:18:49.920Z,3.6
2018-09-30T03:20:50.370Z,4.0
2018-09-30T03:22:49.734Z,4.0
2018-09-30T03:24:50.148Z,3.9
2018-09-30T03:26:49.548Z,3.9
2018-09-30T03:28:49.834Z,4.1
2018-09-30T03:30:50.222Z,4.1
2018-09-30T03:32:49.540Z,4.1
2018-09-30T03:34:50.358Z,4.3
2018-09-30T03:36:49.895Z,4.3
2018-09-30T03:38:50.269Z,4.1
2018-09-30T03:40:49.662Z,4.0
2018-09-30T03:42:50.000Z,4.3
2018-09-30T03:44:50.224Z,4.3
2018-09-30T03:46:49.693Z,4.6
2018-09-30T03:48:49.995Z,4.5
2018-09-30T03:50:50.285Z,4.5
2018-09-30T03:52:49.688Z,4.0
2018-09-30T03:54:49.850Z,4.0
2018-09-30T03:56:50.623Z,4.2
2018-09-30T03:58:50.324Z,4.5
2018-09-30T04:00:49.583Z,4.4
2018-09-30T04:02:49.769Z,4.4
2018-09-30T04:04:50.232Z,4.2
2018-09-30T04:06:49.738Z,4.6
2018-09-30T04:08:49.992Z,4.8
2018-09-30T04:10:50.222Z,4.5
2018-09-30T04:12:50.462Z,5.0
2018-09-30T04:14:49.709Z,5.0
2018-09-30T04:16:50.183Z,4.4
2018-09-30T04:18:49.724Z,4.7
2018-09-30T04:20:49.981Z,4.2
2018-09-30T04:22:50.115Z,4.2
2018-09-30T04:24:50.339Z,5.2
2018-09-30T04:26:50.282Z,5.2
2018-09-30T04:28:50.499Z,4.2
2018-09-30T04:30:49.848Z,4.6
2018-09-30T04:32:50.124Z,4.1
2018-09-30T04:34:49.674Z,4.6
2018-09-30T04:36:50.071Z,4.4
2018-09-30T04:38:50.273Z,4.6
2018-09-30T04:40:50.499Z,4.2
2018-09-30T04:42:49.784Z,4.2
2018-09-30T04:44:49.967Z,4.4
2018-09-30T04:46:50.398Z,4.7
2018-09-30T04:48:49.671Z,5.0
2018-09-30T04:50:49.847Z,4.5
2018-09-30T04:52:50.077Z,4.5
2018-09-30T04:54:50.372Z,4.6
2018-09-30T04:56:49.756Z,4.9
2018-09-30T04:58:50.017Z,4.9
2018-09-30T05:00:50.284Z,4.8
2018-09-30T05:02:49.572Z,4.6
2018-09-30T05:04:50.148Z,4.8
2018-09-30T05:06:49.706Z,4.8
2018-09-30T05:08:50.043Z,4.3
2018-09-30T05:10:50.354Z,4.3
2018-09-30T05:12:49.849Z,4.6
2018-09-30T05:14:50.158Z,4.5
2018-09-30T05:16:49.799Z,4.6
2018-09-30T05:18:50.148Z,4.5
2018-09-30T05:20:50.413Z,4.5
2018-09-30T05:22:49.884Z,4.2
2018-09-30T05:24:50.151Z,3.9
2018-09-30T05:26:49.672Z,4.2
2018-09-30T05:28:49.938Z,4.3
2018-09-30T05:30:50.192Z,4.3
2018-09-30T05:32:50.522Z,4.2
2018-09-30T05:34:50.250Z,4.5
2018-09-30T05:36:50.320Z,4.1
2018-09-30T05:38:49.680Z,4.0
2018-09-30T05:40:49.969Z,4.0
2018-09-30T05:42:50.218Z,4.1
2018-09-30T05:44:49.535Z,4.0
2018-09-30T05:46:50.132Z,4.1
2018-09-30T05:48:50.427Z,4.1
2018-09-30T05:50:49.791Z,3.8
2018-09-30T05:52:50.153Z,3.7
2018-09-30T05:54:50.395Z,4.5
2018-09-30T05:56:49.855Z,3.9
2018-09-30T05:58:50.143Z,3.9
2018-09-30T06:00:50.354Z,3.9
2018-09-30T06:02:49.673Z,4.2
2018-09-30T06:04:50.247Z,4.2
2018-09-30T06:06:49.688Z,3.9
2018-09-30T06:08:49.986Z,3.8
2018-09-30T06:10:49.596Z,3.7
2018-09-30T06:12:49.943Z,3.5
2018-09-30T06:14:50.272Z,3.7
2018-09-30T06:16:49.846Z,3.5
2018-09-30T06:18:50.163Z,3.5
2018-09-30T06:20:50.489Z,3.7
2018-09-30T06:22:49.868Z,3.5
2018-09-30T06:24:50.217Z,3.6
2018-09-30T06:26:49.695Z,3.6
2018-09-30T06:28:50.078Z,3.6
2018-09-30T06:30:50.402Z,3.6
2018-09-30T06:32:49.767Z,3.7
2018-09-30T06:34:50.356Z,3.4
2018-09-30T06:36:49.817Z,3.5
2018-09-30T06:38:50.172Z,3.5
2018-09-30T06:40:49.594Z,3.3
2018-09-30T06:42:49.819Z,3.6
2018-09-30T06:44:50.180Z,3.7
2018-09-30T06:46:49.833Z,3.9
2018-09-30T06:48:50.168Z,3.9
2018-09-30T06:50:50.756Z,3.9
2018-09-30T06:52:50.428Z,3.7
2018-09-30T06:54:49.762Z,3.5
2018-09-30T06:56:50.318Z,3.5
2018-09-30T06:58:49.610Z,3.9
2018-09-30T07:00:49.925Z,3.9
2018-09-30T07:02:50.250Z,4.0
2018-09-30T07:04:50.178Z,4.0
2018-09-30T07:06:50.083Z,4.0
2018-09-30T07:08:50.310Z,4.0
2018-09-30T07:10:49.702Z,3.8
2018-09-30T07:12:50.512Z,3.7
2018-09-30T07:14:49.911Z,3.7
2018-09-30T07:16:50.606Z,4.0
2018-09-30T07:18:50.324Z,3.5
2018-09-30T07:20:49.750Z,3.5
2018-09-30T07:22:50.188Z,3.3
2018-09-30T07:24:50.240Z,3.3
2018-09-30T07:26:49.763Z,3.4
2018-09-30T07:28:50.102Z,3.3
2018-09-30T07:30:50.474Z,3.3
2018-09-30T07:32:50.023Z,3.0
2018-09-30T07:34:50.199Z,2.8
2018-09-30T07:36:49.869Z,2.8
2018-09-30T07:38:50.285Z,3.3
2018-09-30T07:40:49.685Z,3.3
2018-09-30T07:42:49.980Z,2.9
2018-09-30T07:44:50.344Z,2.9
2018-09-30T07:46:50.050Z,3.1
2018-09-30T07:48:50.034Z,2.8
2018-09-30T07:50:50.349Z,2.8
2018-09-30T07:52:49.702Z,2.6
2018-09-30T07:54:50.081Z,2.6
2018-09-30T07:56:50.525Z,2.6
2018-09-30T07:58:49.899Z,2.3
2018-09-30T08:00:50.336Z,2.3
2018-09-30T08:02:49.766Z,2.6
2018-09-30T08:04:50.358Z,2.6
2018-09-30T08:06:49.977Z,2.5
2018-09-30T08:08:50.452Z,2.5
2018-09-30T08:10:49.725Z,2.5
2018-09-30T08:12:50.025Z,2.6
2018-09-30T08:14:50.412Z,2.6
2018-09-30T08:16:50.193Z,2.6
2018-09-30T08:18:49.976Z,2.4
2018-09-30T08:20:50.361Z,2.2
2018-09-30T08:22:49.653Z,2.3
2018-09-30T08:24:49.958Z,2.3
2018-09-30T08:26:50.457Z,2.4
2018-09-30T08:28:49.784Z,2.4
2018-09-30T08:30:50.279Z,2.2
2018-09-30T08:32:50.370Z,2.2
2018-09-30T08:34:50.209Z,2.2
2018-09-30T08:36:49.799Z,1.9
2018-09-30T08:38:50.173Z,2.1
2018-09-30T08:40:50.452Z,2.2
2018-09-30T08:42:50.414Z,2.2
2018-09-30T08:44:49.765Z,2.1
2018-09-30T08:46:50.408Z,2.5
2018-09-30T08:48:49.653Z,2.0
2018-09-30T08:50:49.987Z,2.0
2018-09-30T08:52:50.292Z,2.0
2018-09-30T08:54:49.652Z,2.2
2018-09-30T08:56:50.193Z,2.2
2018-09-30T08:58:49.575Z,1.9
2018-09-30T09:00:49.882Z,2.0
2018-09-30T09:02:50.155Z,2.0
2018-09-30T09:04:49.835Z,2.3
2018-09-30T09:06:50.303Z,2.0
2018-09-30T09:08:49.538Z,2.2
2018-09-30T09:10:49.829Z,2.6
2018-09-30T09:12:50.049Z,2.6
2018-09-30T09:14:50.480Z,2.5
2018-09-30T09:16:49.911Z,2.1
2018-09-30T09:18:50.168Z,2.3
2018-09-30T09:20:50.414Z,2.3
2018-09-30T09:22:49.790Z,2.2
2018-09-30T09:24:50.036Z,2.2
2018-09-30T09:26:50.324Z,2.4
2018-09-30T09:28:50.519Z,2.4
2018-09-30T09:30:49.794Z,2.4
2018-09-30T09:32:50.081Z,2.2
2018-09-30T09:34:49.691Z,2.0
2018-09-30T09:36:50.035Z,2.2
2018-09-30T09:38:50.342Z,2.2
2018-09-30T09:40:49.532Z,2.2
2018-09-30T09:42:49.808Z,2.3
2018-09-30T09:44:50.016Z,2.0
2018-09-30T09:46:50.440Z,2.2
2018-09-30T09:48:49.849Z,2.2
2018-09-30T09:50:50.053Z,2.2
2018-09-30T09:52:50.318Z,2.2
2018-09-30T09:54:49.647Z,2.2
2018-09-30T09:56:50.225Z,2.2
2018-09-30T09:58:49.710Z,2.2
2018-09-30T10:00:49.672Z,2.1
2018-09-30T10:02:50.025Z,2.2
2018-09-30T10:04:49.547Z,2.2
2018-09-30T10:06:50.011Z,2.2
2018-09-30T10:08:50.253Z,2.2
2018-09-30T10:10:50.527Z,2.3
2018-09-30T10:12:49.786Z,2.3
2018-09-30T10:14:50.164Z,1.9
2018-09-30T10:16:49.722Z,2.1
2018-09-30T10:18:49.891Z,2.1
2018-09-30T10:20:50.147Z,2.2
2018-09-30T10:22:50.401Z,2.1
2018-09-30T10:24:50.451Z,2.1
2018-09-30T10:26:50.201Z,2.3
2018-09-30T10:28:50.444Z,2.1
2018-09-30T10:30:49.808Z,2.1
2018-09-30T10:32:50.113Z,2.1
2018-09-30T10:34:49.958Z,2.1
2018-09-30T10:36:50.516Z,2.1
2018-09-30T10:38:50.365Z,2.1
2018-09-30T10:40:50.362Z,2.2
2018-09-30T10:42:49.712Z,2.1
2018-09-30T10:44:50.022Z,1.9
2018-09-30T10:46:49.604Z,1.9
2018-09-30T10:48:50.112Z,2.0
2018-09-30T10:50:49.565Z,2.0
2018-09-30T10:52:49.976Z,2.3
2018-09-30T10:54:50.394Z,2.3
2018-09-30T10:56:50.202Z,2.3
2018-09-30T10:58:50.174Z,2.2
2018-09-30T11:00:49.662Z,2.2
2018-09-30T11:02:50.106Z,2.2
2018-09-30T11:04:49.922Z,2.2
2018-09-30T11:06:49.599Z,2.2
2018-09-30T11:08:50.024Z,2.2
2018-09-30T11:10:50.503Z,2.2
2018-09-30T11:12:49.983Z,2.2
2018-09-30T11:14:50.394Z,2.2
2018-09-30T11:16:50.020Z,2.0
2018-09-30T11:18:50.544Z,2.1
2018-09-30T11:20:50.088Z,2.2
2018-09-30T11:22:49.634Z,2.3
2018-09-30T11:24:50.149Z,2.1
2018-09-30T11:26:49.831Z,2.1
2018-09-30T11:28:50.167Z,2.5
2018-09-30T11:30:50.333Z,2.5
2018-09-30T11:32:49.579Z,2.3
2018-09-30T11:34:50.188Z,2.0
2018-09-30T11:36:49.695Z,2.0
2018-09-30T11:38:49.993Z,2.2
2018-09-30T11:40:50.272Z,2.2
2018-09-30T11:42:50.596Z,2.1
2018-09-30T11:44:49.928Z,2.1
2018-09-30T11:46:50.233Z,2.3
2018-09-30T11:48:49.544Z,2.1
2018-09-30T11:50:49.860Z,2.3
2018-09-30T11:52:50.378Z,2.3
2018-09-30T11:54:50.331Z,2.5
2018-09-30T11:56:49.611Z,2.4
2018-09-30T11:58:49.784Z,2.3
2018-09-30T12:00:50.002Z,2.1
2018-09-30T12:02:50.248Z,2.1
2018-09-30T12:04:49.931Z,2.4
2018-09-30T12:06:50.419Z,2.4
2018-09-30T12:08:49.634Z,2.4
2018-09-30T12:10:49.827Z,2.5
2018-09-30T12:12:50.019Z,2.5
2018-09-30T12:14:50.279Z,2.4
2018-09-30T12:16:49.812Z,2.8
2018-09-30T12:18:50.254Z,2.6
2018-09-30T12:20:50.083Z,2.3
2018-09-30T12:22:50.330Z,2.3
2018-09-30T12:24:49.643Z,2.4
2018-09-30T12:26:49.913Z,2.1
2018-09-30T12:28:50.123Z,2.4
2018-09-30T12:30:50.398Z,2.5
2018-09-30T12:32:49.728Z,2.4
2018-09-30T12:34:50.357Z,2.4
2018-09-30T12:36:49.978Z,2.6
2018-09-30T12:38:50.158Z,2.6
2018-09-30T12:40:50.342Z,2.5
2018-09-30T12:42:49.639Z,2.5
2018-09-30T12:44:49.830Z,2.4
2018-09-30T12:46:50.176Z,2.4
2018-09-30T12:48:50.380Z,2.8
2018-09-30T12:50:49.711Z,2.8
2018-09-30T12:52:49.984Z,2.8
2018-09-30T12:54:50.198Z,2.5
2018-09-30T12:56:49.651Z,2.7
2018-09-30T12:58:49.915Z,2.7
2018-09-30T13:00:50.145Z,2.7
2018-09-30T13:02:50.476Z,2.6
2018-09-30T13:04:50.080Z,2.7
2018-09-30T13:06:50.478Z,2.5
2018-09-30T13:08:49.738Z,2.6
2018-09-30T13:10:50.013Z,2.6
2018-09-30T13:12:50.300Z,2.5
2018-09-30T13:14:50.514Z,2.6
2018-09-30T13:16:49.855Z,2.5
2018-09-30T13:18:50.130Z,2.5
2018-09-30T13:20:50.435Z,2.7
2018-09-30T13:22:49.833Z,2.7
2018-09-30T13:24:49.967Z,2.4
2018-09-30T13:26:50.368Z,2.8
2018-09-30T13:28:49.696Z,3.0
2018-09-30T13:30:49.954Z,3.0
2018-09-30T13:32:50.158Z,2.8
2018-09-30T13:34:49.691Z,2.6
2018-09-30T13:36:50.036Z,2.5
2018-09-30T13:38:50.315Z,2.5
2018-09-30T13:40:50.010Z,2.5
2018-09-30T13:42:49.671Z,2.7
2018-09-30T13:44:49.952Z,2.9
2018-09-30T13:46:50.354Z,2.9
2018-09-30T13:48:49.610Z,3.1
2018-09-30T13:50:49.844Z,2.6
2018-09-30T13:52:50.022Z,2.9
2018-09-30T13:54:50.355Z,2.6
2018-09-30T13:56:49.768Z,2.9
2018-09-30T13:58:50.030Z,2.9
2018-09-30T14:00:50.309Z,3.0
2018-09-30T14:02:50.526Z,2.6
2018-09-30T14:04:50.171Z,2.9
2018-09-30T14:06:49.601Z,2.9
2018-09-30T14:08:50.100Z,2.9
2018-09-30T14:10:50.397Z,2.9
2018-09-30T14:12:49.598Z,2.7
2018-09-30T14:14:49.859Z,2.8
2018-09-30T14:16:50.212Z,2.8
2018-09-30T14:18:50.423Z,2.8
2018-09-30T14:20:49.762Z,2.7
2018-09-30T14:22:50.056Z,2.7
2018-09-30T14:24:50.359Z,3.1
2018-09-30T14:26:49.836Z,3.1
2018-09-30T14:28:50.368Z,2.6
2018-09-30T14:30:49.561Z,3.0
2018-09-30T14:32:49.823Z,2.9
2018-09-30T14:34:50.308Z,2.7
2018-09-30T14:36:49.666Z,2.7
2018-09-30T14:38:49.826Z,3.4
2018-09-30T14:40:50.028Z,3.1
2018-09-30T14:42:50.311Z,2.8
2018-09-30T14:44:50.485Z,2.6
2018-09-30T14:46:50.007Z,2.6
2018-09-30T14:48:50.197Z,3.0
2018-09-30T14:50:50.384Z,2.8
2018-09-30T14:52:49.624Z,2.8
2018-09-30T14:54:49.854Z,2.9
2018-09-30T14:56:50.208Z,2.9
2018-09-30T14:58:50.461Z,3.0
2018-09-30T15:00:49.701Z,3.0
2018-09-30T15:02:49.923Z,3.0
2018-09-30T15:04:50.396Z,2.9
2018-09-30T15:06:49.793Z,2.8
2018-09-30T15:08:50.056Z,3.3
2018-09-30T15:10:50.198Z,2.6
2018-09-30T15:12:50.330Z,2.6
2018-09-30T15:14:49.549Z,2.9
2018-09-30T15:16:49.894Z,2.9
2018-09-30T15:18:50.068Z,2.9
2018-09-30T15:20:50.205Z,3.0
2018-09-30T15:22:50.447Z,3.3
2018-09-30T15:24:49.625Z,2.9
2018-09-30T15:26:50.059Z,2.9
2018-09-30T15:28:50.295Z,3.1
2018-09-30T15:30:50.370Z,3.3
2018-09-30T15:32:49.559Z,3.2
2018-09-30T15:34:50.133Z,3.2
2018-09-30T15:36:50.413Z,3.1
2018-09-30T15:38:49.597Z,3.1
2018-09-30T15:40:49.758Z,3.1
2018-09-30T15:42:50.031Z,3.2
2018-09-30T15:44:49.536Z,3.2
2018-09-30T15:46:49.883Z,3.4
2018-09-30T15:48:50.033Z,3.1
2018-09-30T15:50:50.283Z,3.1
2018-09-30T15:52:50.458Z,3.7
2018-09-30T15:54:49.682Z,3.7
2018-09-30T15:56:50.146Z,3.0
2018-09-30T15:58:50.385Z,3.2
2018-09-30T16:00:49.549Z,3.1
2018-09-30T16:02:49.724Z,2.8
2018-09-30T16:04:50.211Z,2.8
2018-09-30T16:06:49.604Z,3.4
2018-09-30T16:08:49.777Z,2.8
2018-09-30T16:10:49.973Z,2.7
2018-09-30T16:12:50.225Z,3.2
2018-09-30T16:14:50.387Z,3.2
2018-09-30T16:16:49.736Z,3.0
2018-09-30T16:18:49.922Z,3.1
2018-09-30T16:20:50.120Z,3.0
2018-09-30T16:22:50.273Z,3.0
2018-09-30T16:24:50.402Z,3.1
2018-09-30T16:26:49.875Z,2.9
2018-09-30T16:28:49.996Z,3.1
2018-09-30T16:30:50.216Z,2.8
2018-09-30T16:32:50.355Z,2.8
2018-09-30T16:34:49.817Z,3.3
2018-09-30T16:36:50.055Z,2.9
2018-09-30T16:38:50.174Z,2.9
2018-09-30T16:40:50.396Z,3.0
2018-09-30T16:42:49.549Z,3.0
2018-09-30T16:44:49.660Z,3.1
2018-09-30T16:46:49.980Z,3.3
2018-09-30T16:48:50.105Z,3.0
2018-09-30T16:50:50.284Z,3.0
2018-09-30T16:52:49.565Z,2.9
2018-09-30T16:54:49.767Z,3.4
2018-09-30T16:56:50.305Z,3.4
2018-09-30T16:58:50.212Z,3.4
2018-09-30T17:00:50.313Z,3.6
2018-09-30T17:02:50.473Z,3.6
2018-09-30T17:04:50.003Z,3.3
2018-09-30T17:06:50.513Z,3.8
2018-09-30T17:08:49.637Z,3.8
2018-09-30T17:10:49.871Z,3.7
2018-09-30T17:12:50.073Z,3.7
2018-09-30T17:14:50.287Z,3.6
2018-09-30T17:16:49.692Z,3.6
2018-09-30T17:18:49.908Z,3.6
2018-09-30T17:20:50.119Z,3.4
2018-09-30T17:22:50.243Z,3.8
2018-09-30T17:24:50.406Z,3.8
2018-09-30T17:26:49.858Z,3.8
2018-09-30T17:28:50.054Z,4.0
2018-09-30T17:30:50.205Z,4.0
2018-09-30T17:32:50.378Z,4.1
2018-09-30T17:34:50.068Z,4.3
2018-09-30T17:36:50.376Z,5.2
2018-09-30T17:38:49.658Z,5.3
2018-09-30T17:40:49.820Z,5.3
2018-09-30T17:42:49.990Z,5.4
2018-09-30T17:44:50.163Z,5.2
2018-09-30T17:46:50.402Z,5.2
2018-09-30T17:48:49.550Z,6.9
2018-09-30T17:50:49.745Z,6.9
2018-09-30T17:52:49.844Z,5.9
2018-09-30T17:54:49.996Z,8.0
2018-09-30T17:56:50.372Z,8.8
2018-09-30T17:58:49.531Z,8.8
2018-09-30T18:00:49.698Z,9.5
2018-09-30T18:02:49.877Z,9.5
2018-09-30T18:04:50.459Z,8.5
2018-09-30T18:06:49.791Z,9.0
2018-09-30T18:08:49.920Z,8.5
2018-09-30T18:10:50.161Z,8.0
2018-09-30T18:12:49.667Z,9.1
2018-09-30T18:14:49.846Z,7.0
2018-09-30T18:16:50.295Z,5.1
2018-09-30T18:18:49.856Z,5.1
2018-09-30T18:20:50.021Z,5.1
2018-09-30T18:22:50.202Z,5.0
2018-09-30T18:24:50.344Z,5.4
2018-09-30T18:26:49.762Z,5.4
2018-09-30T18:28:49.885Z,5.8
2018-09-30T18:30:50.124Z,5.2
2018-09-30T18:32:50.363Z,5.3
2018-09-30T18:34:50.032Z,5.0
2018-09-30T18:36:50.403Z,5.4
2018-09-30T18:38:49.568Z,5.4
2018-09-30T18:40:49.781Z,5.4
2018-09-30T18:42:49.995Z,4.9
2018-09-30T18:44:50.130Z,5.0
2018-09-30T18:46:50.538Z,5.0
2018-09-30T18:48:49.771Z,5.4
2018-09-30T18:50:49.870Z,5.4
2018-09-30T18:52:50.031Z,4.8
2018-09-30T18:54:50.205Z,4.9
2018-09-30T18:56:49.581Z,5.4
2018-09-30T18:58:49.751Z,5.4
2018-09-30T19:00:49.918Z,5.2
2018-09-30T19:02:50.115Z,5.2
2018-09-30T19:04:49.648Z,5.4
2018-09-30T19:06:50.081Z,5.4
2018-09-30T19:08:50.276Z,5.4
2018-09-30T19:10:50.340Z,5.0
2018-09-30T19:12:50.500Z,5.4
2018-09-30T19:14:49.772Z,5.4
2018-09-30T19:16:50.045Z,5.4
2018-09-30T19:18:50.289Z,5.4
2018-09-30T19:20:50.475Z,5.3
2018-09-30T19:22:49.842Z,5.4
2018-09-30T19:24:50.556Z,5.4
2018-09-30T19:26:49.848Z,5.4
2018-09-30T19:28:50.056Z,5.4
2018-09-30T19:30:50.160Z,5.6
2018-09-30T19:32:50.411Z,5.5
2018-09-30T19:34:50.109Z,5.8
2018-09-30T19:36:50.399Z,5.8
2018-09-30T19:38:49.680Z,5.6
2018-09-30T19:40:49.852Z,6.0
2018-09-30T19:42:50.089Z,6.0
2018-09-30T19:44:50.276Z,5.8
2018-09-30T19:46:49.675Z,5.8
2018-09-30T19:48:49.987Z,5.9
2018-09-30T19:50:49.762Z,5.7
2018-09-30T19:52:49.929Z,5.8
2018-09-30T19:54:50.108Z,6.2
2018-09-30T19:56:50.421Z,6.2
2018-09-30T19:58:49.617Z,5.9
2018-09-30T20:00:49.837Z,6.3
2018-09-30T20:02:50.295Z,6.7
2018-09-30T20:04:49.864Z,6.7
2018-09-30T20:06:50.105Z,6.6
2018-09-30T20:08:50.276Z,6.3
2018-09-30T20:10:50.473Z,6.3
2018-09-30T20:12:49.639Z,6.3
2018-09-30T20:14:49.836Z,6.3
2018-09-30T20:16:50.273Z,6.2
2018-09-30T20:18:50.451Z,6.6
2018-09-30T20:20:49.857Z,6.6
2018-09-30T20:22:49.557Z,6.3
2018-09-30T20:24:49.851Z,6.3
2018-09-30T20:26:50.369Z,6.3
2018-09-30T20:28:49.532Z,6.4
2018-09-30T20:30:49.749Z,6.2
2018-09-30T20:32:49.892Z,6.5
2018-09-30T20:34:50.256Z,6.5
2018-09-30T20:36:49.658Z,6.7
2018-09-30T20:38:49.881Z,6.5
2018-09-30T20:40:50.030Z,6.7
2018-09-30T20:42:50.291Z,6.9
2018-09-30T20:44:50.462Z,6.9
2018-09-30T20:46:49.825Z,6.6
2018-09-30T20:48:50.044Z,6.8
2018-09-30T20:50:49.621Z,6.6
2018-09-30T20:52:49.678Z,6.9
2018-09-30T20:54:49.821Z,6.9
2018-09-30T20:56:50.172Z,6.6
2018-09-30T20:58:50.367Z,6.6
2018-09-30T21:00:49.542Z,6.8
2018-09-30T21:02:49.801Z,6.8
2018-09-30T21:04:49.802Z,7.1
2018-09-30T21:06:49.614Z,6.6
2018-09-30T21:08:49.769Z,6.8
2018-09-30T21:10:50.212Z,6.6
2018-09-30T21:12:50.497Z,6.6
2018-09-30T21:14:49.654Z,6.8
2018-09-30T21:16:50.088Z,6.6
2018-09-30T21:18:50.459Z,6.7
2018-09-30T21:20:49.951Z,6.3
2018-09-30T21:22:50.151Z,6.3
2018-09-30T21:24:50.262Z,7.2
2018-09-30T21:26:49.763Z,6.8
2018-09-30T21:28:50.160Z,6.8
2018-09-30T21:30:50.409Z,7.2
2018-09-30T21:32:49.627Z,8.0
2018-09-30T21:34:49.994Z,7.2
2018-09-30T21:36:50.212Z,6.9
2018-09-30T21:38:50.470Z,6.9
2018-09-30T21:40:49.692Z,7.5
2018-09-30T21:42:49.880Z,7.5
2018-09-30T21:44:50.146Z,7.2
2018-09-30T21:46:50.492Z,7.7
2018-09-30T21:48:49.963Z,7.7
2018-09-30T21:50:50.271Z,7.4
2018-09-30T21:52:50.345Z,7.4
2018-09-30T21:54:49.631Z,6.9
2018-09-30T21:56:50.078Z,7.1
2018-09-30T21:58:50.271Z,6.8
2018-09-30T22:00:50.521Z,6.8
2018-09-30T22:02:49.682Z,6.9
2018-09-30T22:04:50.084Z,7.2
2018-09-30T22:06:50.377Z,7.4
2018-09-30T22:08:49.545Z,7.2
2018-09-30T22:10:49.795Z,7.2
2018-09-30T22:12:50.022Z,7.2
2018-09-30T22:14:50.236Z,7.2
2018-09-30T22:16:49.622Z,7.6
2018-09-30T22:18:49.802Z,7.6
2018-09-30T22:20:49.965Z,7.5
2018-09-30T22:22:50.115Z,7.8
2018-09-30T22:24:50.280Z,7.9
2018-09-30T22:26:49.597Z,7.9
2018-09-30T22:28:50.058Z,7.8
2018-09-30T22:30:50.220Z,7.8
2018-09-30T22:32:50.395Z,7.8
2018-09-30T22:34:50.103Z,7.7
2018-09-30T22:36:49.526Z,7.7
2018-09-30T22:38:49.648Z,7.9
2018-09-30T22:40:49.895Z,7.7
2018-09-30T22:42:50.009Z,8.1
2018-09-30T22:44:50.118Z,8.1
2018-09-30T22:46:49.532Z,8.1
2018-09-30T22:48:49.777Z,8.2
2018-09-30T22:50:49.928Z,7.9
2018-09-30T22:52:50.100Z,8.2
2018-09-30T22:54:50.311Z,8.3
2018-09-30T22:56:49.714Z,8.3
2018-09-30T22:58:49.908Z,8.8
2018-09-30T23:00:50.040Z,8.0
2018-09-30T23:02:50.315Z,8.3
2018-09-30T23:04:49.740Z,8.3
2018-09-30T23:06:50.103Z,8.4
2018-09-30T23:08:50.306Z,7.7
2018-09-30T23:10:50.496Z,7.7
2018-09-30T23:12:49.701Z,8.7
2018-09-30T23:14:49.861Z,8.7
2018-09-30T23:16:50.260Z,8.8
2018-09-30T23:18:50.371Z,8.8
2018-09-30T23:20:49.641Z,8.3
2018-09-30T23:22:49.790Z,8.4
2018-09-30T23:24:49.908Z,8.4
2018-09-30T23:26:50.279Z,8.3
2018-09-30T23:28:50.448Z,8.2
2018-09-30T23:30:49.557Z,8.2
2018-09-30T23:32:49.762Z,8.5
2018-09-30T23:34:50.283Z,8.5
2018-09-30T23:36:49.715Z,8.5
2018-09-30T23:38:49.852Z,8.5
2018-09-30T23:40:49.971Z,8.8
2018-09-30T23:42:50.191Z,9.2
2018-09-30T23:44:50.348Z,8.5
2018-09-30T23:46:49.701Z,8.5
2018-09-30T23:48:49.919Z,9.2
2018-09-30T23:50:50.033Z,8.9
2018-09-30T23:52:50.166Z,8.7
2018-09-30T23:54:50.380Z,8.5
2018-09-30T23:56:49.808Z,8.5
2018-09-30T23:58:49.932Z,8.6
